Time;durP1;ratioP1;P1;durP2;ratioP2;P2;SDS_P1;SDS_P2;PMS_P1;PMS_P2;Temp;Humidity;BMP_temperature;BMP_pressure;BME280_temperature;BME280_humidity;BME280_pressure;Samples;Min_cycle;Max_cycle;Signal;HPM_P1;HPM_P2
2021/12/27 00:00:07;;;;;;;;;3.00;3.00;;;;;;;;5013259;28;45459;-80
2021/12/27 00:02:32;;;;;;;;;3.00;3.00;;;;;;;;5015065;28;47519;-79
2021/12/27 00:04:57;;;;;;;;;2.67;2.00;;;;;;;;5015883;28;45740;-80
2021/12/27 00:07:22;;;;;;;;;4.75;2.00;;;;;;;;5018518;28;46191;-79
2021/12/27 00:09:49;;;;;;;;;5.00;2.00;;;;;;;;5015779;28;45672;-79
2021/12/27 00:12:14;;;;;;;;;3.00;2.00;;;;;;;;5012662;28;46281;-79
2021/12/27 00:14:42;;;;;;;;;2.25;2.00;;;;;;;;5026282;28;45521;-79
2021/12/27 00:17:10;;;;;;;;;1.50;1.00;;;;;;;;5015341;28;45578;-79
2021/12/27 00:19:36;;;;;;;;;1.50;1.00;;;;;;;;5014906;28;45342;-79
2021/12/27 00:22:04;;;;;;;;;4.75;3.00;;;;;;;;5024840;28;47063;-79
2021/12/27 00:24:29;;;;;;;;;3.00;3.00;;;;;;;;5015617;28;45590;-79
2021/12/27 00:26:56;;;;;;;;;2.33;2.33;;;;;;;;5018989;28;45660;-79
2021/12/27 00:29:22;;;;;;;;;0.25;0.25;;;;;;;;5019044;28;45540;-79
2021/12/27 00:31:47;;;;;;;;;3.75;1.75;;;;;;;;5024115;28;47420;-80
2021/12/27 00:34:13;;;;;;;;;4.00;2.50;;;;;;;;5022581;28;45530;-79
2021/12/27 00:36:38;;;;;;;;;1.75;1.00;;;;;;;;5028050;28;45459;-79
2021/12/27 00:39:03;;;;;;;;;5.00;2.25;;;;;;;;5030468;28;45506;-79
2021/12/27 00:41:31;;;;;;;;;3.00;2.00;;;;;;;;5029432;28;46012;-78
2021/12/27 00:43:57;;;;;;;;;1.00;1.00;;;;;;;;5028794;28;45510;-78
2021/12/27 00:46:22;;;;;;;;;3.33;2.00;;;;;;;;5028662;28;45456;-78
2021/12/27 00:48:47;;;;;;;;;1.00;1.00;;;;;;;;5033057;28;45363;-79
2021/12/27 00:51:12;;;;;;;;;3.33;1.00;;;;;;;;5028347;28;45446;-79
2021/12/27 00:53:37;;;;;;;;;2.00;2.00;;;;;;;;5030408;28;45529;-79
2021/12/27 00:56:06;;;;;;;;;1.00;0.67;;;;;;;;5030807;28;45636;-79
2021/12/27 00:58:31;;;;;;;;;4.00;1.25;;;;;;;;5031665;28;45453;-79
2021/12/27 01:00:57;;;;;;;;;1.50;1.50;;;;;;;;5032565;28;48686;-79
2021/12/27 01:03:22;;;;;;;;;2.75;2.00;;;;;;;;5031701;28;45618;-79
2021/12/27 01:05:47;;;;;;;;;2.00;1.75;;;;;;;;5031560;28;45403;-78
2021/12/27 01:08:13;;;;;;;;;2.75;1.00;;;;;;;;5031412;28;45617;-79
2021/12/27 01:11:09;;;;;;;;;1.50;1.50;;;;;;;;5030837;28;46285;-79
2021/12/27 01:13:47;;;;;;;;;0.00;0.00;;;;;;;;5031887;28;45815;-79
2021/12/27 01:16:14;;;;;;;;;1.00;1.00;;;;;;;;5032032;28;45923;-78
2021/12/27 01:18:54;;;;;;;;;1.00;1.00;;;;;;;;5032784;28;45404;-79
2021/12/27 01:21:20;;;;;;;;;1.25;1.00;;;;;;;;5030086;28;45645;-79
2021/12/27 01:23:48;;;;;;;;;3.75;1.25;;;;;;;;5034600;28;45614;-79
2021/12/27 01:26:13;;;;;;;;;1.00;1.00;;;;;;;;5032506;28;45454;-79
2021/12/27 01:28:43;;;;;;;;;1.75;1.00;;;;;;;;5031193;28;45600;-79
2021/12/27 01:31:08;;;;;;;;;1.00;1.00;;;;;;;;5030140;28;45939;-79
2021/12/27 01:33:37;;;;;;;;;1.00;1.00;;;;;;;;5032920;28;45597;-79
2021/12/27 01:36:03;;;;;;;;;3.00;1.00;;;;;;;;5031730;28;45373;-79
2021/12/27 01:38:28;;;;;;;;;2.50;2.00;;;;;;;;5034177;28;45607;-78
2021/12/27 01:40:56;;;;;;;;;3.00;1.00;;;;;;;;5034605;28;45782;-79
2021/12/27 01:43:26;;;;;;;;;2.00;1.00;;;;;;;;5031185;28;45459;-79
2021/12/27 01:45:51;;;;;;;;;1.00;1.00;;;;;;;;5021288;28;45627;-79
2021/12/27 01:48:20;;;;;;;;;2.67;2.00;;;;;;;;5037830;28;45601;-78
2021/12/27 01:50:46;;;;;;;;;2.00;1.00;;;;;;;;5025364;28;48384;-79
2021/12/27 01:53:12;;;;;;;;;2.25;1.00;;;;;;;;5031901;28;45958;-79
2021/12/27 01:55:38;;;;;;;;;1.25;1.25;;;;;;;;5032121;28;45445;-79
2021/12/27 01:58:04;;;;;;;;;1.00;1.00;;;;;;;;5032398;28;45522;-79
2021/12/27 02:00:30;;;;;;;;;2.00;2.00;;;;;;;;5032567;28;45871;-79
2021/12/27 02:02:55;;;;;;;;;1.00;1.00;;;;;;;;5033052;28;45519;-79
2021/12/27 02:05:20;;;;;;;;;1.00;1.00;;;;;;;;5032359;28;46043;-79
2021/12/27 02:07:45;;;;;;;;;2.00;1.00;;;;;;;;5031521;28;46423;-78
2021/12/27 02:10:11;;;;;;;;;1.00;1.00;;;;;;;;5026603;28;46100;-79
2021/12/27 02:12:36;;;;;;;;;0.25;0.25;;;;;;;;5032216;28;45501;-78
2021/12/27 02:15:07;;;;;;;;;2.00;1.00;;;;;;;;5031011;28;45645;-78
2021/12/27 02:17:33;;;;;;;;;0.00;0.00;;;;;;;;5031685;28;45408;-79
2021/12/27 02:19:58;;;;;;;;;1.00;1.00;;;;;;;;5029271;28;45449;-79
2021/12/27 02:22:24;;;;;;;;;1.00;1.00;;;;;;;;5031701;28;45463;-79
2021/12/27 02:24:49;;;;;;;;;2.00;1.00;;;;;;;;5031869;28;45518;-79
2021/12/27 02:27:15;;;;;;;;;1.00;1.00;;;;;;;;5024623;28;45509;-79
2021/12/27 02:29:41;;;;;;;;;2.00;1.50;;;;;;;;5032195;28;46146;-79
2021/12/27 02:32:06;;;;;;;;;2.00;1.00;;;;;;;;5031649;28;46274;-79
2021/12/27 02:34:32;;;;;;;;;2.00;1.50;;;;;;;;5031111;28;45554;-79
2021/12/27 02:36:57;;;;;;;;;2.00;1.00;;;;;;;;5028937;28;45568;-79
2021/12/27 02:39:22;;;;;;;;;2.00;2.00;;;;;;;;5031549;28;45699;-79
2021/12/27 02:41:47;;;;;;;;;1.67;1.67;;;;;;;;5028969;28;46682;-79
2021/12/27 02:44:12;;;;;;;;;4.67;2.67;;;;;;;;5029779;28;45331;-79
2021/12/27 02:46:38;;;;;;;;;2.67;2.00;;;;;;;;5030974;28;45715;-79
2021/12/27 02:49:04;;;;;;;;;2.00;2.00;;;;;;;;5030553;28;45596;-79
2021/12/27 02:51:30;;;;;;;;;2.50;2.00;;;;;;;;5030095;28;45972;-78
2021/12/27 02:53:56;;;;;;;;;3.00;3.00;;;;;;;;5031915;28;45691;-79
2021/12/27 02:56:21;;;;;;;;;4.00;3.67;;;;;;;;5030248;28;45696;-77
2021/12/27 02:58:47;;;;;;;;;3.75;3.50;;;;;;;;5029988;28;45424;-79
2021/12/27 03:01:14;;;;;;;;;4.00;3.00;;;;;;;;5030268;28;45828;-80
2021/12/27 03:03:39;;;;;;;;;3.50;3.50;;;;;;;;5029989;28;45583;-79
2021/12/27 03:06:05;;;;;;;;;7.75;2.25;;;;;;;;5031214;28;45476;-78
2021/12/27 03:08:31;;;;;;;;;6.25;4.25;;;;;;;;5030737;28;46301;-79
2021/12/27 03:10:58;;;;;;;;;6.00;3.25;;;;;;;;5029013;28;45617;-79
2021/12/27 03:13:25;;;;;;;;;2.50;2.50;;;;;;;;5029628;28;45413;-79
2021/12/27 03:15:54;;;;;;;;;7.00;4.75;;;;;;;;5028766;28;45586;-79
2021/12/27 03:18:20;;;;;;;;;8.50;3.75;;;;;;;;5030886;28;46733;-79
2021/12/27 03:20:45;;;;;;;;;4.00;2.75;;;;;;;;5031541;28;45351;-79
2021/12/27 03:23:11;;;;;;;;;3.25;3.00;;;;;;;;5030997;28;45747;-79
2021/12/27 03:25:36;;;;;;;;;8.00;4.00;;;;;;;;5031157;28;45447;-79
2021/12/27 03:28:01;;;;;;;;;3.50;3.50;;;;;;;;5023613;28;45653;-80
2021/12/27 03:30:27;;;;;;;;;3.00;3.00;;;;;;;;5030664;28;45293;-79
2021/12/27 03:32:53;;;;;;;;;6.00;4.00;;;;;;;;5032767;28;45614;-79
2021/12/27 03:35:25;;;;;;;;;4.25;4.25;;;;;;;;5030876;28;45450;-79
2021/12/27 03:37:52;;;;;;;;;3.25;3.25;;;;;;;;5030776;28;46703;-79
2021/12/27 03:40:18;;;;;;;;;5.25;4.75;;;;;;;;5029582;28;45783;-79
2021/12/27 03:42:49;;;;;;;;;5.00;3.25;;;;;;;;5030755;28;45541;-79
2021/12/27 03:45:15;;;;;;;;;8.00;3.00;;;;;;;;5031023;28;45455;-79
2021/12/27 03:47:40;;;;;;;;;7.50;4.00;;;;;;;;5032284;28;46916;-79
2021/12/27 03:50:06;;;;;;;;;6.67;4.00;;;;;;;;5029373;28;45597;-79
2021/12/27 03:52:31;;;;;;;;;5.67;4.00;;;;;;;;5030140;28;45684;-79
2021/12/27 03:54:56;;;;;;;;;5.50;3.00;;;;;;;;5030038;28;45415;-79
2021/12/27 03:57:21;;;;;;;;;3.00;3.00;;;;;;;;5029596;28;45342;-79
2021/12/27 04:02:13;;;;;;;;;4.33;4.00;;;;;;;;5025535;28;45645;-79
2021/12/27 04:04:41;;;;;;;;;6.50;4.25;;;;;;;;5030351;28;45696;-79
2021/12/27 04:07:08;;;;;;;;;7.00;4.25;;;;;;;;5028971;28;46156;-79
2021/12/27 04:09:33;;;;;;;;;9.50;4.75;;;;;;;;5036964;28;45834;-80
2021/12/27 04:11:58;;;;;;;;;7.00;6.00;;;;;;;;5031440;28;45410;-79
2021/12/27 04:14:25;;;;;;;;;5.00;3.33;;;;;;;;5030058;28;45549;-80
2021/12/27 04:16:50;;;;;;;;;4.75;4.75;;;;;;;;5029110;28;45947;-79
2021/12/27 04:19:16;;;;;;;;;6.00;4.00;;;;;;;;5029705;28;45851;-79
2021/12/27 04:21:41;;;;;;;;;8.33;4.00;;;;;;;;5030210;28;45584;-80
2021/12/27 04:24:06;;;;;;;;;5.00;3.00;;;;;;;;5031432;28;45413;-80
2021/12/27 04:26:31;;;;;;;;;3.67;3.00;;;;;;;;5020840;28;45707;-78
2021/12/27 04:28:57;;;;;;;;;6.67;4.00;;;;;;;;5029013;28;45481;-77
2021/12/27 04:31:22;;;;;;;;;6.00;4.00;;;;;;;;5025595;28;45493;-78
2021/12/27 04:33:47;;;;;;;;;7.33;5.00;;;;;;;;5032753;28;45375;-79
2021/12/27 04:36:12;;;;;;;;;6.50;5.00;;;;;;;;5032318;28;47921;-80
2021/12/27 04:38:43;;;;;;;;;8.67;3.33;;;;;;;;5035803;28;45482;-80
2021/12/27 04:41:09;;;;;;;;;6.00;3.75;;;;;;;;5034309;28;45470;-80
2021/12/27 04:43:35;;;;;;;;;5.75;4.75;;;;;;;;5033296;28;45561;-80
2021/12/27 04:46:00;;;;;;;;;5.75;3.75;;;;;;;;5033847;28;46504;-78
2021/12/27 04:48:25;;;;;;;;;3.67;2.00;;;;;;;;5033714;28;45487;-78
2021/12/27 04:50:51;;;;;;;;;5.00;3.00;;;;;;;;5033351;28;45517;-78
2021/12/27 04:53:16;;;;;;;;;9.00;4.25;;;;;;;;5033005;28;45776;-78
2021/12/27 04:55:44;;;;;;;;;7.00;4.50;;;;;;;;5032311;28;48045;-77
2021/12/27 04:58:09;;;;;;;;;4.75;3.75;;;;;;;;5032975;28;45744;-79
2021/12/27 05:00:35;;;;;;;;;6.25;4.25;;;;;;;;5032253;28;45573;-80
2021/12/27 05:03:01;;;;;;;;;6.00;3.00;;;;;;;;5034101;28;45494;-78
2021/12/27 05:05:26;;;;;;;;;7.00;4.00;;;;;;;;5032038;28;46043;-80
2021/12/27 05:07:52;;;;;;;;;5.50;3.00;;;;;;;;5030718;28;45544;-80
2021/12/27 05:10:17;;;;;;;;;4.75;4.00;;;;;;;;5032714;28;45649;-79
2021/12/27 05:12:43;;;;;;;;;6.00;5.00;;;;;;;;5031889;28;45622;-79
2021/12/27 05:15:08;;;;;;;;;5.50;5.25;;;;;;;;5033581;28;46257;-79
2021/12/27 05:17:34;;;;;;;;;4.00;4.00;;;;;;;;5034036;28;45359;-79
2021/12/27 05:20:03;;;;;;;;;4.00;4.00;;;;;;;;5033238;28;45518;-79
2021/12/27 05:22:29;;;;;;;;;10.50;4.25;;;;;;;;5031710;28;45530;-79
2021/12/27 05:24:54;;;;;;;;;4.00;4.00;;;;;;;;5033066;28;45455;-79
2021/12/27 05:27:19;;;;;;;;;6.67;4.00;;;;;;;;5023027;28;45721;-77
2021/12/27 05:29:44;;;;;;;;;8.00;5.00;;;;;;;;5033460;28;45598;-80
2021/12/27 05:32:09;;;;;;;;;8.00;4.67;;;;;;;;5032556;28;45426;-79
2021/12/27 05:34:35;;;;;;;;;5.67;5.67;;;;;;;;5031805;28;45367;-80
2021/12/27 05:37:00;;;;;;;;;5.50;3.75;;;;;;;;5031808;28;45465;-79
2021/12/27 05:39:26;;;;;;;;;7.00;4.67;;;;;;;;5031127;28;45470;-80
2021/12/27 05:41:51;;;;;;;;;11.00;4.00;;;;;;;;5028192;28;45421;-79
2021/12/27 05:44:17;;;;;;;;;7.00;4.00;;;;;;;;5031662;28;48086;-79
2021/12/27 05:46:43;;;;;;;;;7.75;4.75;;;;;;;;5032144;28;45458;-79
2021/12/27 05:49:09;;;;;;;;;7.50;5.75;;;;;;;;5030277;28;45804;-79
2021/12/27 05:51:36;;;;;;;;;9.50;5.00;;;;;;;;5032740;28;45565;-79
2021/12/27 05:54:01;;;;;;;;;5.00;5.00;;;;;;;;5032351;28;48429;-79
2021/12/27 05:56:26;;;;;;;;;6.50;3.75;;;;;;;;5032817;28;45459;-79
2021/12/27 05:58:52;;;;;;;;;4.00;4.00;;;;;;;;5031363;28;45393;-79
2021/12/27 06:01:17;;;;;;;;;7.67;6.00;;;;;;;;5030251;28;45440;-79
2021/12/27 06:03:42;;;;;;;;;6.00;6.00;;;;;;;;5031324;28;45454;-80
2021/12/27 06:06:07;;;;;;;;;9.00;6.00;;;;;;;;5029927;28;45471;-79
2021/12/27 06:08:33;;;;;;;;;4.75;4.75;;;;;;;;5033266;28;45513;-79
2021/12/27 06:10:58;;;;;;;;;7.75;5.75;;;;;;;;5031387;28;45590;-79
2021/12/27 06:13:23;;;;;;;;;6.00;5.33;;;;;;;;5031796;28;45561;-77
2021/12/27 06:15:49;;;;;;;;;5.67;4.00;;;;;;;;5032119;28;45639;-79
2021/12/27 06:18:14;;;;;;;;;7.33;5.33;;;;;;;;5030647;28;45754;-79
2021/12/27 06:20:39;;;;;;;;;8.00;6.00;;;;;;;;5033460;28;45531;-79
2021/12/27 06:23:04;;;;;;;;;7.00;7.00;;;;;;;;5033141;28;46041;-79
2021/12/27 06:25:29;;;;;;;;;8.67;5.33;;;;;;;;5034734;28;45789;-79
2021/12/27 06:27:55;;;;;;;;;9.00;7.00;;;;;;;;5022899;28;46587;-79
2021/12/27 06:30:21;;;;;;;;;7.00;5.33;;;;;;;;5030068;28;45437;-78
2021/12/27 06:32:46;;;;;;;;;8.50;6.00;;;;;;;;5033922;28;45551;-79
2021/12/27 06:35:12;;;;;;;;;8.50;7.25;;;;;;;;5031232;28;45548;-79
2021/12/27 06:37:38;;;;;;;;;7.00;5.00;;;;;;;;5032383;28;45625;-80
2021/12/27 06:40:03;;;;;;;;;7.25;6.25;;;;;;;;5032057;28;45770;-80
2021/12/27 06:42:29;;;;;;;;;5.75;5.00;;;;;;;;5031581;28;48023;-80
2021/12/27 06:44:54;;;;;;;;;11.67;7.67;;;;;;;;5032201;28;45839;-77
2021/12/27 06:47:19;;;;;;;;;7.00;7.00;;;;;;;;5031746;28;45790;-80
2021/12/27 06:49:44;;;;;;;;;11.00;9.00;;;;;;;;5030865;28;45695;-79
2021/12/27 06:52:11;;;;;;;;;9.67;8.00;;;;;;;;5030782;28;45520;-79
2021/12/27 06:54:37;;;;;;;;;7.75;5.75;;;;;;;;5031098;28;46096;-77
2021/12/27 06:57:02;;;;;;;;;8.00;6.00;;;;;;;;5032481;28;45866;-80
2021/12/27 06:59:28;;;;;;;;;13.00;7.00;;;;;;;;5032542;28;45524;-80
2021/12/27 07:01:53;;;;;;;;;7.00;5.75;;;;;;;;5028572;28;45992;-79
2021/12/27 07:04:19;;;;;;;;;12.50;7.00;;;;;;;;5028875;28;45503;-78
2021/12/27 07:06:44;;;;;;;;;9.67;7.00;;;;;;;;5030748;28;45493;-79
2021/12/27 07:09:09;;;;;;;;;7.67;6.67;;;;;;;;5030179;28;45763;-79
2021/12/27 07:11:35;;;;;;;;;7.33;6.00;;;;;;;;5032898;28;45383;-79
2021/12/27 07:14:01;;;;;;;;;10.00;8.00;;;;;;;;5027418;28;45992;-79
2021/12/27 07:16:27;;;;;;;;;8.50;6.00;;;;;;;;5030109;28;45593;-79
2021/12/27 07:18:52;;;;;;;;;8.00;7.00;;;;;;;;5031116;28;45405;-78
2021/12/27 07:21:17;;;;;;;;;8.33;6.00;;;;;;;;5031332;28;46066;-79
2021/12/27 07:23:44;;;;;;;;;6.00;6.00;;;;;;;;5033169;28;45410;-79
2021/12/27 07:26:09;;;;;;;;;5.75;5.75;;;;;;;;5021287;28;46838;-79
2021/12/27 07:28:34;;;;;;;;;8.00;7.00;;;;;;;;5029442;28;45637;-78
2021/12/27 07:30:59;;;;;;;;;9.67;7.67;;;;;;;;5028773;28;46553;-79
2021/12/27 07:33:25;;;;;;;;;6.33;6.00;;;;;;;;5029854;28;45455;-79
2021/12/27 07:35:50;;;;;;;;;8.33;7.00;;;;;;;;5031504;28;45410;-79
2021/12/27 07:38:15;;;;;;;;;8.00;8.00;;;;;;;;5029586;28;45553;-79
2021/12/27 07:40:40;;;;;;;;;6.00;6.00;;;;;;;;5030008;28;46562;-79
2021/12/27 07:43:06;;;;;;;;;9.00;8.00;;;;;;;;5028259;28;46674;-80
2021/12/27 07:45:31;;;;;;;;;8.00;6.00;;;;;;;;5029675;28;45601;-79
2021/12/27 07:47:57;;;;;;;;;8.33;6.33;;;;;;;;5030823;28;45477;-79
2021/12/27 07:50:22;;;;;;;;;7.00;7.00;;;;;;;;5030662;28;46017;-80
2021/12/27 07:52:47;;;;;;;;;8.00;6.00;;;;;;;;5030114;28;45541;-79
2021/12/27 07:55:12;;;;;;;;;6.33;5.00;;;;;;;;5019587;28;45571;-79
2021/12/27 07:57:38;;;;;;;;;7.33;5.33;;;;;;;;5028241;28;45488;-80
2021/12/27 08:00:29;;;;;;;;;6.25;3.75;;;;;;;;5030049;28;45538;-80
2021/12/27 08:02:54;;;;;;;;;6.00;6.00;;;;;;;;5029469;28;45980;-80
2021/12/27 08:05:19;;;;;;;;;4.00;4.00;;;;;;;;5027463;28;45539;-78
2021/12/27 08:07:45;;;;;;;;;5.33;4.00;;;;;;;;5028814;28;45427;-78
2021/12/27 08:10:11;;;;;;;;;5.75;4.00;;;;;;;;5030013;28;46533;-78
2021/12/27 08:12:37;;;;;;;;;7.50;4.00;;;;;;;;5030354;28;45860;-78
2021/12/27 08:15:03;;;;;;;;;7.50;5.25;;;;;;;;5029937;28;45347;-77
2021/12/27 08:17:29;;;;;;;;;3.25;3.25;;;;;;;;5030457;28;45590;-78
2021/12/27 08:19:54;;;;;;;;;3.00;3.00;;;;;;;;5028570;28;46188;-80
2021/12/27 08:22:19;;;;;;;;;4.67;4.00;;;;;;;;5029796;28;45653;-80
2021/12/27 08:24:44;;;;;;;;;5.00;5.00;;;;;;;;5028092;28;45586;-79
2021/12/27 08:27:10;;;;;;;;;5.33;4.00;;;;;;;;5028464;28;45438;-77
2021/12/27 08:29:35;;;;;;;;;6.00;4.25;;;;;;;;5031336;28;45580;-80
2021/12/27 08:32:00;;;;;;;;;5.33;4.33;;;;;;;;5028193;28;45529;-78
2021/12/27 08:34:25;;;;;;;;;2.33;2.33;;;;;;;;5027647;28;45613;-78
2021/12/27 08:36:51;;;;;;;;;7.00;5.00;;;;;;;;5030049;28;45537;-79
2021/12/27 08:39:16;;;;;;;;;4.00;2.25;;;;;;;;5029418;28;45711;-80
2021/12/27 08:41:41;;;;;;;;;6.33;2.33;;;;;;;;5031297;28;45422;-79
2021/12/27 08:44:06;;;;;;;;;4.67;4.00;;;;;;;;5029018;28;45521;-79
2021/12/27 08:46:33;;;;;;;;;2.67;2.67;;;;;;;;5029584;28;45467;-79
2021/12/27 08:48:58;;;;;;;;;4.00;2.50;;;;;;;;5028017;28;45605;-79
2021/12/27 08:51:23;;;;;;;;;4.67;3.00;;;;;;;;5029105;28;45576;-79
2021/12/27 08:53:49;;;;;;;;;3.75;3.75;;;;;;;;5030438;28;45755;-79
2021/12/27 08:56:14;;;;;;;;;3.00;3.00;;;;;;;;5027292;28;45769;-79
2021/12/27 08:58:39;;;;;;;;;2.50;2.50;;;;;;;;5026622;28;46330;-79
2021/12/27 09:01:06;;;;;;;;;2.33;2.33;;;;;;;;5025064;28;46419;-79
2021/12/27 09:03:31;;;;;;;;;3.00;3.00;;;;;;;;5029163;28;45645;-79
2021/12/27 09:05:56;;;;;;;;;3.00;3.00;;;;;;;;5030844;28;45560;-80
2021/12/27 09:08:22;;;;;;;;;6.00;3.00;;;;;;;;5029171;28;45604;-79
2021/12/27 09:10:47;;;;;;;;;4.00;3.67;;;;;;;;5028435;28;46225;-79
2021/12/27 09:13:12;;;;;;;;;3.00;3.00;;;;;;;;5029395;28;45849;-78
2021/12/27 09:15:37;;;;;;;;;3.00;2.33;;;;;;;;5028963;28;45544;-78
2021/12/27 09:18:03;;;;;;;;;2.00;2.00;;;;;;;;5033173;28;45924;-79
2021/12/27 09:20:28;;;;;;;;;3.00;3.00;;;;;;;;5031216;28;47036;-78
2021/12/27 09:22:54;;;;;;;;;2.50;2.50;;;;;;;;5029916;28;45629;-78
2021/12/27 09:25:20;;;;;;;;;4.75;3.00;;;;;;;;5024882;28;45588;-78
2021/12/27 09:27:45;;;;;;;;;6.00;4.00;;;;;;;;5034740;28;45573;-80
2021/12/27 09:30:10;;;;;;;;;2.00;2.00;;;;;;;;5032674;28;45602;-80
2021/12/27 09:32:36;;;;;;;;;4.25;3.75;;;;;;;;5034306;28;45835;-79
2021/12/27 09:35:02;;;;;;;;;4.25;3.00;;;;;;;;5033177;28;45562;-80
2021/12/27 09:37:27;;;;;;;;;3.00;3.00;;;;;;;;5030746;28;45949;-80
2021/12/27 09:39:55;;;;;;;;;5.00;3.00;;;;;;;;5032804;28;45601;-79
2021/12/27 09:42:21;;;;;;;;;3.25;3.00;;;;;;;;5032948;28;45455;-79
2021/12/27 09:44:47;;;;;;;;;3.00;3.00;;;;;;;;5030096;28;45619;-79
2021/12/27 09:47:12;;;;;;;;;3.50;3.00;;;;;;;;5029815;28;45772;-79
2021/12/27 09:49:37;;;;;;;;;3.33;3.00;;;;;;;;5030944;28;45572;-80
2021/12/27 09:52:03;;;;;;;;;5.00;3.00;;;;;;;;5032443;28;45632;-80
2021/12/27 09:54:28;;;;;;;;;2.50;2.00;;;;;;;;5029841;28;45812;-79
2021/12/27 09:56:53;;;;;;;;;1.50;1.00;;;;;;;;5030715;28;47089;-79
2021/12/27 09:59:20;;;;;;;;;3.00;2.00;;;;;;;;5030031;28;45412;-80
2021/12/27 10:01:45;;;;;;;;;5.00;2.25;;;;;;;;5027014;28;45628;-79
2021/12/27 10:04:10;;;;;;;;;3.00;3.00;;;;;;;;5031386;28;45577;-81
2021/12/27 10:06:35;;;;;;;;;3.33;2.00;;;;;;;;5028908;28;47105;-79
2021/12/27 10:09:05;;;;;;;;;3.00;2.00;;;;;;;;5033337;28;45517;-79
2021/12/27 10:11:38;;;;;;;;;3.00;2.00;;;;;;;;5033275;28;45585;-79
2021/12/27 10:14:03;;;;;;;;;2.00;2.00;;;;;;;;5029221;28;45789;-80
2021/12/27 10:16:29;;;;;;;;;3.33;3.00;;;;;;;;5027039;28;48318;-79
2021/12/27 10:18:55;;;;;;;;;3.00;2.00;;;;;;;;5029742;28;45510;-79
2021/12/27 10:21:20;;;;;;;;;1.50;1.50;;;;;;;;5030106;28;45535;-79
2021/12/27 10:23:46;;;;;;;;;2.00;2.00;;;;;;;;5028664;28;45802;-79
2021/12/27 10:26:16;;;;;;;;;1.00;1.00;;;;;;;;5014345;28;48426;-80
2021/12/27 10:28:41;;;;;;;;;1.00;1.00;;;;;;;;5020905;28;45531;-80
2021/12/27 10:31:06;;;;;;;;;1.33;1.33;;;;;;;;5039147;28;45478;-80
2021/12/27 10:33:33;;;;;;;;;1.00;1.00;;;;;;;;5030522;28;45347;-82
2021/12/27 10:35:58;;;;;;;;;1.00;1.00;;;;;;;;5029241;28;47437;-80
2021/12/27 10:38:28;;;;;;;;;2.00;2.00;;;;;;;;5031450;28;45462;-81
2021/12/27 10:41:00;;;;;;;;;1.50;1.50;;;;;;;;5027644;28;45709;-81
2021/12/27 10:43:56;;;;;;;;;3.75;2.75;;;;;;;;5027714;28;45750;-80
2021/12/27 10:46:21;;;;;;;;;3.50;1.00;;;;;;;;5026617;28;45695;-81
2021/12/27 10:48:57;;;;;;;;;2.25;1.25;;;;;;;;5026634;28;46090;-79
2021/12/27 10:51:25;;;;;;;;;1.75;1.00;;;;;;;;5030068;28;45671;-79
2021/12/27 10:53:57;;;;;;;;;5.00;2.00;;;;;;;;5032210;28;45551;-80
2021/12/27 10:56:25;;;;;;;;;2.00;2.00;;;;;;;;5044502;28;47788;-79
2021/12/27 10:58:52;;;;;;;;;4.00;2.25;;;;;;;;5030786;28;45787;-78
2021/12/27 11:01:22;;;;;;;;;2.00;2.00;;;;;;;;5026247;28;45412;-81
2021/12/27 11:03:48;;;;;;;;;3.00;2.50;;;;;;;;5023572;28;45739;-80
2021/12/27 11:06:17;;;;;;;;;2.00;2.00;;;;;;;;5028698;28;45624;-84
2021/12/27 11:08:44;;;;;;;;;4.25;2.75;;;;;;;;5032110;28;45568;-80
2021/12/27 11:11:10;;;;;;;;;4.00;2.00;;;;;;;;5028057;28;45414;-81
2021/12/27 11:13:35;;;;;;;;;2.50;1.00;;;;;;;;5028440;28;45638;-82
2021/12/27 11:16:01;;;;;;;;;1.50;1.00;;;;;;;;5029278;28;45564;-81
2021/12/27 11:18:27;;;;;;;;;4.00;2.50;;;;;;;;5028773;28;45396;-80
2021/12/27 11:20:53;;;;;;;;;3.00;2.00;;;;;;;;5028274;28;45701;-82
2021/12/27 11:23:20;;;;;;;;;3.75;3.00;;;;;;;;5019946;28;46230;-81
2021/12/27 11:25:45;;;;;;;;;1.00;1.00;;;;;;;;5018899;28;45541;-81
2021/12/27 11:28:24;;;;;;;;;1.00;1.00;;;;;;;;5018727;28;45552;-82
2021/12/27 11:30:49;;;;;;;;;3.00;3.00;;;;;;;;5019030;28;45578;-82
2021/12/27 11:33:16;;;;;;;;;3.00;2.00;;;;;;;;5018562;28;45410;-81
2021/12/27 11:35:51;;;;;;;;;2.00;2.00;;;;;;;;5023132;28;46877;-81
2021/12/27 11:38:36;;;;;;;;;3.75;2.00;;;;;;;;5028085;28;45513;-81
2021/12/27 11:41:03;;;;;;;;;3.50;2.00;;;;;;;;5029484;28;45752;-80
2021/12/27 11:43:47;;;;;;;;;1.00;1.00;;;;;;;;5024229;28;45644;-81
2021/12/27 11:46:12;;;;;;;;;3.75;2.00;;;;;;;;5026393;28;46401;-81
2021/12/27 11:48:43;;;;;;;;;1.00;0.00;;;;;;;;5027416;28;45332;-81
2021/12/27 11:51:09;;;;;;;;;2.00;2.00;;;;;;;;5027078;28;45518;-81
2021/12/27 11:53:41;;;;;;;;;2.50;1.00;;;;;;;;5031918;28;45622;-81
2021/12/27 11:56:10;;;;;;;;;2.50;1.00;;;;;;;;5025830;28;48530;-81
2021/12/27 11:58:40;;;;;;;;;2.00;2.00;;;;;;;;5028105;28;45467;-81
2021/12/27 12:01:06;;;;;;;;;1.00;1.00;;;;;;;;5026925;28;45995;-81
2021/12/27 12:03:50;;;;;;;;;2.00;2.00;;;;;;;;5030285;28;45497;-80
2021/12/27 12:06:35;;;;;;;;;1.00;1.00;;;;;;;;5029976;28;46238;-81
2021/12/27 12:09:01;;;;;;;;;1.00;1.00;;;;;;;;5028709;28;45973;-80
2021/12/27 12:11:31;;;;;;;;;2.00;1.00;;;;;;;;5030814;28;45422;-80
2021/12/27 12:13:59;;;;;;;;;1.75;1.75;;;;;;;;5028552;28;45620;-80
2021/12/27 12:16:25;;;;;;;;;2.25;0.75;;;;;;;;5029522;28;46533;-82
2021/12/27 12:18:51;;;;;;;;;1.00;1.00;;;;;;;;5028708;28;45850;-80
2021/12/27 12:21:28;;;;;;;;;2.33;1.00;;;;;;;;5029816;28;45488;-80
2021/12/27 12:23:55;;;;;;;;;1.25;1.00;;;;;;;;5063837;28;45466;-81
2021/12/27 12:26:20;;;;;;;;;1.00;1.00;;;;;;;;5027369;28;47593;-79
2021/12/27 12:28:46;;;;;;;;;1.00;1.00;;;;;;;;5028629;28;45832;-80
2021/12/27 12:31:11;;;;;;;;;3.67;1.00;;;;;;;;5026643;28;45571;-80
2021/12/27 12:33:36;;;;;;;;;3.00;1.00;;;;;;;;5030306;28;45498;-80
2021/12/27 12:36:04;;;;;;;;;1.25;1.00;;;;;;;;5027876;28;47270;-80
2021/12/27 12:38:29;;;;;;;;;2.25;0.75;;;;;;;;5030085;28;45966;-80
2021/12/27 12:41:04;;;;;;;;;1.00;1.00;;;;;;;;5029565;28;45482;-80
2021/12/27 12:43:46;;;;;;;;;0.50;0.50;;;;;;;;5021313;28;45658;-81
2021/12/27 12:46:21;;;;;;;;;0.00;0.00;;;;;;;;5026117;28;48124;-84
2021/12/27 12:49:04;;;;;;;;;1.00;0.00;;;;;;;;5028383;28;46041;-83
2021/12/27 12:51:32;;;;;;;;;1.00;1.00;;;;;;;;5029247;28;45608;-84
2021/12/27 12:53:58;;;;;;;;;2.00;1.00;;;;;;;;5032665;28;45619;-82
2021/12/27 12:56:30;;;;;;;;;2.00;0.00;;;;;;;;5031867;28;46336;-83
2021/12/27 12:58:56;;;;;;;;;1.00;0.00;;;;;;;;5032363;28;45622;-83
2021/12/27 13:01:21;;;;;;;;;1.00;1.00;;;;;;;;5033274;28;45375;-84
2021/12/27 13:03:46;;;;;;;;;2.75;0.00;;;;;;;;5033000;28;45514;-83
2021/12/27 13:06:11;;;;;;;;;4.00;0.25;;;;;;;;5029804;28;46316;-83
2021/12/27 13:08:37;;;;;;;;;3.33;1.00;;;;;;;;5029901;28;45605;-83
2021/12/27 13:11:02;;;;;;;;;1.00;1.00;;;;;;;;5025871;28;45550;-83
2021/12/27 13:13:28;;;;;;;;;1.25;1.00;;;;;;;;5024777;28;46415;-84
2021/12/27 13:16:02;;;;;;;;;0.50;0.50;;;;;;;;5029839;28;45479;-84
2021/12/27 13:18:29;;;;;;;;;1.00;1.00;;;;;;;;5031889;28;45745;-83
2021/12/27 13:20:54;;;;;;;;;1.00;1.00;;;;;;;;5032401;28;45669;-84
2021/12/27 13:23:21;;;;;;;;;2.00;0.00;;;;;;;;5032866;28;45520;-84
2021/12/27 13:25:50;;;;;;;;;2.25;1.00;;;;;;;;5032561;28;45712;-87
2021/12/27 13:28:28;;;;;;;;;4.50;1.00;;;;;;;;5028088;28;45947;-84
2021/12/27 13:31:08;;;;;;;;;3.25;1.00;;;;;;;;5028912;28;45729;-85
2021/12/27 13:33:36;;;;;;;;;2.75;1.75;;;;;;;;5032189;28;45868;-84
2021/12/27 13:36:03;;;;;;;;;3.75;1.75;;;;;;;;5031749;28;46281;-83
2021/12/27 13:38:30;;;;;;;;;1.75;1.25;;;;;;;;5048057;28;45863;-85
2021/12/27 13:40:58;;;;;;;;;4.25;1.00;;;;;;;;5031820;28;45761;-85
2021/12/27 13:43:25;;;;;;;;;0.00;0.00;;;;;;;;5021886;28;45626;-84
2021/12/27 13:45:50;;;;;;;;;4.00;1.00;;;;;;;;5029180;28;48625;-83
2021/12/27 13:48:27;;;;;;;;;5.25;1.50;;;;;;;;5031593;28;45617;-84
2021/12/27 13:50:53;;;;;;;;;5.50;2.00;;;;;;;;5034045;28;45532;-86
2021/12/27 13:53:19;;;;;;;;;4.00;1.75;;;;;;;;5030534;28;45582;-84
2021/12/27 13:55:44;;;;;;;;;4.67;1.67;;;;;;;;5027459;28;45588;-85
2021/12/27 13:58:15;;;;;;;;;6.25;1.50;;;;;;;;5030380;28;45685;-84
2021/12/27 14:00:41;;;;;;;;;3.50;2.00;;;;;;;;5031217;28;45492;-84
2021/12/27 14:03:22;;;;;;;;;3.00;2.00;;;;;;;;5029311;28;45625;-84
2021/12/27 14:05:51;;;;;;;;;3.75;2.00;;;;;;;;5030940;28;45694;-84
2021/12/27 14:08:16;;;;;;;;;3.50;1.00;;;;;;;;5030820;28;45932;-84
2021/12/27 14:10:41;;;;;;;;;4.00;1.00;;;;;;;;5031481;28;45524;-82
2021/12/27 14:13:06;;;;;;;;;6.00;1.33;;;;;;;;5031658;28;45613;-83
2021/12/27 14:15:32;;;;;;;;;5.67;2.33;;;;;;;;5030648;28;47912;-82
2021/12/27 14:18:11;;;;;;;;;5.00;1.75;;;;;;;;5029405;28;46392;-82
2021/12/27 14:20:37;;;;;;;;;4.00;2.75;;;;;;;;5031238;28;45532;-83
2021/12/27 14:23:10;;;;;;;;;7.75;2.50;;;;;;;;5033108;28;45844;-83
2021/12/27 14:25:36;;;;;;;;;6.25;0.75;;;;;;;;5030987;28;46614;-83
2021/12/27 14:28:01;;;;;;;;;3.50;2.25;;;;;;;;5032057;28;45557;-83
2021/12/27 14:30:32;;;;;;;;;7.00;2.00;;;;;;;;5031589;28;45998;-83
2021/12/27 14:32:59;;;;;;;;;9.50;1.75;;;;;;;;5032469;28;46263;-83
2021/12/27 14:35:24;;;;;;;;;6.50;3.25;;;;;;;;5030427;28;48952;-83
2021/12/27 14:37:50;;;;;;;;;6.50;2.25;;;;;;;;5030868;28;45609;-83
2021/12/27 14:40:15;;;;;;;;;7.75;1.75;;;;;;;;5030300;28;46816;-83
2021/12/27 14:42:41;;;;;;;;;6.00;3.00;;;;;;;;5032149;28;45577;-83